createdAt,value
2018-02-23T00:02:27.887Z,17.08
2018-02-23T00:04:56.743Z,15.93
2018-02-23T00:07:24.920Z,13.62
2018-02-23T00:09:53.743Z,14.75
2018-02-23T00:12:22.516Z,15.40
2018-02-23T00:14:51.337Z,17.23
2018-02-23T00:17:20.150Z,14.50
2018-02-23T00:19:48.980Z,15.40
2018-02-23T00:22:17.496Z,16.05
2018-02-23T00:24:46.298Z,14.65
2018-02-23T00:27:15.132Z,17.02
2018-02-23T00:29:43.966Z,16.92
2018-02-23T00:32:12.742Z,19.98
2018-02-23T00:34:41.556Z,18.17
2018-02-23T00:37:10.361Z,15.65
2018-02-23T00:39:39.950Z,15.07
2018-02-23T00:42:08.783Z,15.43
2018-02-23T00:44:37.584Z,15.32
2018-02-23T00:47:06.430Z,13.62
2018-02-23T00:49:36.022Z,15.63
2018-02-23T00:52:04.830Z,14.82
2018-02-23T00:54:34.361Z,16.67
2018-02-23T00:57:03.174Z,14.77
2018-02-23T00:59:32.001Z,18.25
2018-02-23T01:02:00.783Z,13.13
2018-02-23T01:04:29.637Z,14.00
2018-02-23T01:06:58.442Z,15.65
2018-02-23T01:09:27.230Z,15.10
2018-02-23T01:11:56.018Z,13.43
2018-02-23T01:14:24.481Z,16.62
2018-02-23T01:16:53.282Z,15.27
2018-02-23T01:19:22.075Z,15.57
2018-02-23T01:21:50.940Z,13.15
2018-02-23T01:24:19.818Z,13.68
2018-02-23T01:26:48.627Z,15.40
2018-02-23T01:29:17.431Z,13.62
2018-02-23T01:31:46.453Z,16.27
2018-02-23T01:34:16.042Z,15.50
2018-02-23T01:36:44.861Z,13.00
2018-02-23T01:39:14.407Z,15.07
2018-02-23T01:41:43.233Z,19.20
2018-02-23T01:44:12.008Z,13.02
2018-02-23T01:46:40.854Z,14.55
2018-02-23T01:49:09.676Z,15.18
2018-02-23T01:51:38.475Z,12.60
2018-02-23T01:54:07.290Z,14.00
2018-02-23T01:56:36.822Z,12.65
2018-02-23T01:59:05.676Z,16.45
2018-02-23T02:01:35.294Z,12.90
2018-02-23T02:04:04.892Z,16.85
2018-02-23T02:06:33.729Z,14.38
2018-02-23T02:09:02.564Z,15.48
2018-02-23T02:11:31.398Z,15.18
2018-02-23T02:14:00.183Z,12.65
2018-02-23T02:16:29.031Z,13.80
2018-02-23T02:18:57.877Z,13.82
2018-02-23T02:21:27.474Z,14.32
2018-02-23T02:23:56.326Z,14.18
2018-02-23T02:26:25.190Z,14.52
2018-02-23T02:28:53.826Z,13.52
2018-02-23T02:31:22.630Z,12.98
2018-02-23T02:33:51.283Z,12.13
2018-02-23T02:36:20.881Z,15.63
2018-02-23T02:38:49.699Z,13.13
2018-02-23T02:41:18.367Z,13.95
2018-02-23T02:43:47.178Z,12.63
2018-02-23T02:46:15.938Z,13.60
2018-02-23T02:48:45.498Z,17.83
2018-02-23T02:51:14.303Z,15.73
2018-02-23T02:53:43.159Z,11.63
2018-02-23T02:56:11.950Z,15.60
2018-02-23T02:58:40.769Z,13.40
2018-02-23T03:01:09.622Z,15.35
2018-02-23T03:03:38.434Z,14.20
2018-02-23T03:06:07.274Z,14.87
2018-02-23T03:08:36.882Z,16.17
2018-02-23T03:11:05.690Z,18.60
2018-02-23T03:13:34.521Z,14.35
2018-02-23T03:16:03.342Z,14.68
2018-02-23T03:18:32.175Z,15.45
2018-02-23T03:21:00.987Z,13.70
2018-02-23T03:23:29.846Z,11.25
2018-02-23T03:25:58.663Z,15.60
2018-02-23T03:28:27.454Z,13.60
2018-02-23T03:30:56.266Z,14.57
2018-02-23T03:33:25.071Z,15.82
2018-02-23T03:35:53.846Z,12.45
2018-02-23T03:38:22.669Z,14.43
2018-02-23T03:40:51.462Z,13.48
2018-02-23T03:43:20.303Z,14.15
2018-02-23T03:45:49.903Z,14.48
2018-02-23T03:48:19.759Z,17.33
2018-02-23T03:50:48.599Z,13.88
2018-02-23T03:53:19.641Z,15.05
2018-02-23T03:55:48.594Z,11.32
2018-02-23T03:58:20.247Z,12.75
2018-02-23T04:00:48.751Z,13.32
2018-02-23T04:03:17.510Z,14.30
2018-02-23T04:05:46.302Z,13.77
2018-02-23T04:08:15.216Z,14.10
2018-02-23T04:10:44.087Z,13.98
2018-02-23T04:13:12.924Z,15.15
2018-02-23T04:15:41.747Z,11.88
2018-02-23T04:18:11.343Z,13.77
2018-02-23T04:20:40.158Z,13.68
2018-02-23T04:23:08.987Z,14.82
2018-02-23T04:25:37.825Z,13.32
2018-02-23T04:28:06.635Z,12.45
2018-02-23T04:30:35.455Z,12.88
2018-02-23T04:33:04.302Z,12.57
2018-02-23T04:35:33.099Z,14.63
2018-02-23T04:38:01.935Z,16.27
2018-02-23T04:40:30.612Z,14.38
2018-02-23T04:42:59.608Z,13.50
2018-02-23T04:45:28.423Z,13.23
2018-02-23T04:47:57.232Z,12.80
2018-02-23T04:50:26.038Z,14.25
2018-02-23T04:52:54.802Z,14.00
2018-02-23T04:55:23.617Z,12.50
2018-02-23T04:57:52.430Z,14.45
2018-02-23T05:00:21.260Z,14.43
2018-02-23T05:02:49.952Z,12.63
2018-02-23T05:05:18.571Z,12.95
2018-02-23T05:07:47.406Z,18.02
2018-02-23T05:10:16.228Z,14.55
2018-02-23T05:12:45.035Z,16.37
2018-02-23T05:15:13.870Z,14.63
2018-02-23T05:17:43.449Z,12.35
2018-02-23T05:20:12.254Z,13.75
2018-02-23T05:22:41.866Z,15.45
2018-02-23T05:25:10.695Z,15.18
2018-02-23T05:27:39.484Z,13.85
2018-02-23T05:30:08.314Z,12.88
2018-02-23T05:32:37.123Z,17.70
2018-02-23T05:35:06.703Z,16.55
2018-02-23T05:37:35.504Z,14.30
2018-02-23T05:40:04.422Z,15.93
2018-02-23T05:42:33.585Z,14.85
2018-02-23T05:45:02.438Z,18.33
2018-02-23T05:47:31.238Z,16.35
2018-02-23T05:50:00.079Z,16.48
2018-02-23T05:52:28.921Z,16.67
2018-02-23T05:54:57.760Z,12.80
2018-02-23T05:57:26.604Z,19.83
2018-02-23T05:59:55.441Z,17.12
2018-02-23T06:02:24.272Z,15.55
2018-02-23T06:04:53.073Z,18.33
2018-02-23T06:07:21.897Z,18.23
2018-02-23T06:09:50.726Z,17.05
2018-02-23T06:12:19.527Z,14.52
2018-02-23T06:14:48.332Z,16.08
2018-02-23T06:17:22.585Z,16.70
2018-02-23T06:19:57.757Z,17.52
2018-02-23T06:22:26.584Z,16.20
2018-02-23T06:24:55.405Z,14.68
2018-02-23T06:27:25.104Z,17.73
2018-02-23T06:29:54.815Z,17.20
2018-02-23T06:32:23.623Z,17.90
2018-02-23T06:35:07.470Z,15.65
2018-02-23T06:37:36.299Z,23.20
2018-02-23T06:40:05.128Z,16.75
2018-02-23T06:42:37.206Z,17.25
2018-02-23T06:45:06.866Z,16.73
2018-02-23T06:47:35.828Z,17.87
2018-02-23T06:50:04.394Z,20.25
2018-02-23T06:52:33.214Z,22.10
2018-02-23T06:55:02.046Z,16.80
2018-02-23T06:57:32.570Z,15.30
2018-02-23T07:00:01.524Z,17.92
2018-02-23T07:02:30.353Z,17.52
2018-02-23T07:04:59.185Z,18.20
2018-02-23T07:07:28.045Z,16.65
2018-02-23T07:09:57.650Z,17.37
2018-02-23T07:12:27.305Z,13.55
2018-02-23T07:14:56.150Z,16.37
2018-02-23T07:17:25.795Z,14.85
2018-02-23T07:19:54.751Z,21.42
2018-02-23T07:22:24.407Z,15.38
2018-02-23T07:24:53.358Z,16.98
2018-02-23T07:27:22.220Z,19.40
2018-02-23T07:29:51.873Z,17.35
2018-02-23T07:32:20.691Z,18.95
2018-02-23T07:34:49.595Z,19.40
2018-02-23T07:37:18.496Z,16.70
2018-02-23T07:39:48.188Z,16.77
2018-02-23T07:42:16.993Z,19.58
2018-02-23T07:44:45.850Z,19.27
2018-02-23T07:47:14.535Z,20.60
2018-02-23T07:49:43.400Z,18.62
2018-02-23T07:52:12.116Z,22.62
2018-02-23T07:54:40.984Z,21.25
2018-02-23T07:57:09.896Z,20.50
2018-02-23T07:59:39.769Z,18.67
2018-02-23T08:02:08.631Z,20.08
2018-02-23T08:04:38.463Z,21.45
2018-02-23T08:07:07.453Z,19.15
2018-02-23T08:09:37.209Z,20.65
2018-02-23T08:12:06.233Z,26.33
2018-02-23T08:14:34.960Z,22.10
2018-02-23T08:17:04.644Z,20.27
2018-02-23T08:19:33.566Z,20.10
2018-02-23T08:22:02.460Z,25.37
2018-02-23T08:24:31.389Z,23.83
2018-02-23T08:27:00.415Z,23.40
2018-02-23T08:29:30.023Z,20.20
2018-02-23T08:31:58.787Z,22.60
2018-02-23T08:34:27.727Z,22.08
2018-02-23T08:36:56.583Z,24.95
2018-02-23T08:39:26.212Z,21.80
2018-02-23T08:41:55.051Z,20.08
2018-02-23T08:44:23.924Z,26.12
2018-02-23T08:46:52.846Z,22.67
2018-02-23T08:49:21.712Z,23.10
2018-02-23T08:51:50.559Z,24.08
2018-02-23T08:54:19.480Z,21.80
2018-02-23T08:56:48.570Z,25.88
2018-02-23T08:59:17.543Z,24.37
2018-02-23T09:01:46.538Z,22.90
2018-02-23T09:04:15.407Z,22.27
2018-02-23T09:06:45.182Z,27.55
2018-02-23T09:09:14.106Z,27.25
2018-02-23T09:11:43.678Z,26.45
2018-02-23T09:14:12.540Z,27.67
2018-02-23T09:16:41.408Z,25.08
2018-02-23T09:19:10.421Z,24.27
2018-02-23T09:21:39.399Z,26.42
2018-02-23T09:24:08.318Z,22.50
2018-02-23T09:26:37.285Z,22.75
2018-02-23T09:29:06.210Z,23.08
2018-02-23T09:31:36.189Z,22.48
2018-02-23T09:34:16.324Z,20.70
2018-02-23T09:36:45.926Z,31.15
2018-02-23T09:39:15.628Z,22.35
2018-02-23T09:41:45.397Z,21.15
2018-02-23T09:44:14.288Z,23.10
2018-02-23T09:46:44.158Z,22.10
2018-02-23T09:49:13.804Z,22.52
2018-02-23T09:51:42.659Z,24.65
2018-02-23T09:54:11.515Z,21.52
2018-02-23T09:56:47.558Z,25.75
2018-02-23T09:59:16.459Z,20.85
2018-02-23T10:01:45.080Z,22.83
2018-02-23T10:04:14.712Z,29.67
2018-02-23T10:06:43.678Z,21.80
2018-02-23T10:09:13.318Z,23.02
2018-02-23T10:11:41.918Z,22.67
2018-02-23T10:14:10.744Z,24.45
2018-02-23T10:16:39.560Z,23.75
2018-02-23T10:19:08.398Z,20.50
2018-02-23T10:21:37.705Z,23.50
2018-02-23T10:24:06.337Z,22.37
2018-02-23T10:26:40.515Z,21.80
2018-02-23T10:29:11.066Z,28.17
2018-02-23T10:31:39.674Z,22.87
2018-02-23T10:34:08.182Z,17.43
2018-02-23T10:36:36.637Z,20.83
2018-02-23T10:39:04.472Z,22.53
2018-02-23T10:41:32.867Z,24.27
2018-02-23T10:44:01.294Z,23.40
2018-02-23T10:46:33.580Z,20.87
2018-02-23T10:49:03.768Z,21.20
2018-02-23T10:51:32.270Z,20.40
2018-02-23T10:54:00.929Z,21.37
2018-02-23T10:56:29.591Z,22.37
2018-02-23T10:58:58.088Z,26.70
2018-02-23T11:01:28.631Z,22.27
2018-02-23T11:03:57.196Z,27.00
2018-02-23T11:06:25.723Z,23.90
2018-02-23T11:09:02.750Z,22.10
2018-02-23T11:11:31.268Z,22.90
2018-02-23T11:13:59.690Z,37.23
2018-02-23T11:16:28.295Z,25.53
2018-02-23T11:18:56.987Z,25.63
2018-02-23T11:21:25.559Z,31.73
2018-02-23T11:23:54.147Z,31.43
2018-02-23T11:26:22.732Z,34.97
2018-02-23T11:28:51.259Z,32.93
2018-02-23T11:31:20.654Z,44.50
2018-02-23T11:33:49.259Z,55.00
2018-02-23T11:36:18.602Z,39.77
2018-02-23T11:38:47.222Z,74.37
2018-02-23T11:41:15.756Z,76.27
2018-02-23T11:43:45.200Z,36.50
2018-02-23T11:46:13.758Z,51.93
2018-02-23T11:48:42.411Z,38.63
2018-02-23T11:51:11.003Z,43.87
2018-02-23T11:53:39.557Z,33.40
2018-02-23T11:56:08.906Z,27.13
2018-02-23T11:58:37.417Z,25.17
2018-02-23T12:01:06.001Z,40.93
2018-02-23T12:03:34.604Z,32.10
2018-02-23T12:06:03.927Z,34.27
2018-02-23T12:08:32.560Z,51.00
2018-02-23T12:11:01.061Z,35.23
2018-02-23T12:13:29.639Z,44.00
2018-02-23T12:15:58.201Z,46.33
2018-02-23T12:18:26.776Z,72.30
2018-02-23T12:20:55.338Z,31.07
2018-02-23T12:23:35.337Z,28.67
2018-02-23T12:26:03.948Z,25.93
2018-02-23T12:28:32.512Z,25.67
2018-02-23T12:31:01.086Z,25.27
2018-02-23T12:33:29.669Z,24.70
2018-02-23T12:35:58.250Z,25.97
2018-02-23T12:38:26.842Z,23.87
2018-02-23T12:40:55.612Z,26.17
2018-02-23T12:43:24.131Z,24.87
2018-02-23T12:45:53.463Z,26.20
2018-02-23T12:48:22.080Z,42.47
2018-02-23T12:50:50.641Z,67.13
2018-02-23T12:53:19.263Z,40.27
2018-02-23T12:55:47.828Z,52.43
2018-02-23T12:58:16.406Z,32.70
2018-02-23T13:00:44.915Z,28.33
2018-02-23T13:03:14.243Z,25.37
2018-02-23T13:05:42.509Z,53.07
2018-02-23T13:08:11.730Z,50.13
2018-02-23T13:10:40.404Z,47.70
2018-02-23T13:13:08.964Z,72.63
2018-02-23T13:15:38.297Z,60.57
2018-02-23T13:18:06.831Z,33.60
2018-02-23T13:20:35.358Z,50.70
2018-02-23T13:23:03.895Z,77.07
2018-02-23T13:25:32.477Z,42.17
2018-02-23T13:28:06.528Z,40.90
2018-02-23T13:30:35.072Z,32.07
2018-02-23T13:33:03.475Z,39.37
2018-02-23T13:35:31.887Z,28.63
2018-02-23T13:38:00.457Z,28.47
2018-02-23T13:40:31.743Z,33.60
2018-02-23T13:43:00.290Z,37.23
2018-02-23T13:45:28.635Z,69.13
2018-02-23T13:47:58.128Z,48.23
2018-02-23T13:50:26.713Z,37.53
2018-02-23T13:52:55.125Z,38.70
2018-02-23T13:55:23.712Z,38.97
2018-02-23T13:57:52.320Z,41.37
2018-02-23T14:00:21.696Z,37.73
2018-02-23T14:02:50.252Z,39.07
2018-02-23T14:05:19.598Z,33.00
2018-02-23T14:07:47.989Z,35.17
2018-02-23T14:10:16.535Z,35.10
2018-02-23T14:12:45.764Z,31.37
2018-02-23T14:15:14.235Z,38.60
2018-02-23T14:17:42.955Z,65.87
2018-02-23T14:20:11.567Z,40.33
2018-02-23T14:22:40.868Z,57.10
2018-02-23T14:25:10.177Z,28.27
2018-02-23T14:27:38.743Z,41.63
2018-02-23T14:30:07.301Z,42.73
2018-02-23T14:32:35.876Z,85.00
2018-02-23T14:35:04.457Z,77.20
2018-02-23T14:37:32.983Z,47.07
2018-02-23T14:40:01.543Z,33.67
2018-02-23T14:42:30.076Z,33.27
2018-02-23T14:44:58.658Z,39.00
2018-02-23T14:47:27.226Z,38.93
2018-02-23T14:50:07.586Z,41.17
2018-02-23T14:52:36.996Z,33.00
2018-02-23T14:55:05.553Z,25.90
2018-02-23T14:57:34.900Z,28.97
2018-02-23T15:00:02.931Z,30.80
2018-02-23T15:02:31.342Z,26.47
2018-02-23T15:04:59.919Z,28.50
2018-02-23T15:07:29.261Z,26.03
2018-02-23T15:09:57.821Z,29.70
2018-02-23T15:12:26.318Z,30.43
2018-02-23T15:14:54.903Z,25.73
2018-02-23T15:17:23.422Z,41.30
2018-02-23T15:19:52.811Z,47.30
2018-02-23T15:22:21.054Z,49.03
2018-02-23T15:24:49.619Z,86.53
2018-02-23T15:27:18.190Z,45.97
2018-02-23T15:29:46.579Z,59.27
2018-02-23T15:32:24.404Z,97.40
2018-02-23T15:34:53.054Z,70.57
2018-02-23T15:37:21.622Z,36.17
2018-02-23T15:39:51.009Z,29.03
2018-02-23T15:42:20.364Z,26.30
2018-02-23T15:44:49.003Z,23.70
2018-02-23T15:47:18.254Z,27.67
2018-02-23T15:49:47.626Z,28.30
2018-02-23T15:52:15.690Z,25.97
2018-02-23T15:54:44.094Z,32.03
2018-02-23T15:57:19.173Z,30.00
2018-02-23T16:00:00.152Z,26.90
2018-02-23T16:02:29.319Z,26.83
2018-02-23T16:04:57.867Z,26.67
2018-02-23T16:07:26.395Z,29.53
2018-02-23T16:09:55.584Z,23.43
2018-02-23T16:12:25.509Z,24.07
2018-02-23T16:14:54.330Z,26.53
2018-02-23T16:17:23.676Z,25.50
2018-02-23T16:19:52.257Z,27.23
2018-02-23T16:22:20.838Z,26.07
2018-02-23T16:24:49.367Z,22.73
2018-02-23T16:27:18.776Z,24.83
2018-02-23T16:29:48.173Z,26.17
2018-02-23T16:32:16.742Z,27.33
2018-02-23T16:34:45.297Z,28.57
2018-02-23T16:37:13.850Z,27.97
2018-02-23T16:39:42.400Z,24.77
2018-02-23T16:42:11.821Z,23.07
2018-02-23T16:44:40.440Z,34.77
2018-02-23T16:47:09.007Z,25.57
2018-02-23T16:49:37.561Z,26.97
2018-02-23T16:52:06.124Z,23.83
2018-02-23T16:54:34.685Z,26.57
2018-02-23T16:57:03.248Z,26.80
2018-02-23T16:59:31.807Z,28.50
2018-02-23T17:02:00.473Z,27.27
2018-02-23T17:04:29.332Z,28.87
2018-02-23T17:06:57.896Z,26.77
2018-02-23T17:09:26.482Z,31.60
2018-02-23T17:11:55.064Z,44.83
2018-02-23T17:14:23.640Z,48.90
2018-02-23T17:16:52.219Z,32.93
2018-02-23T17:19:20.846Z,40.53
2018-02-23T17:21:49.394Z,32.67
2018-02-23T17:24:18.419Z,32.27
2018-02-23T17:26:46.984Z,37.45
2018-02-23T17:29:15.524Z,32.23
2018-02-23T17:31:44.092Z,42.00
2018-02-23T17:34:12.685Z,31.33
2018-02-23T17:36:41.268Z,30.13
2018-02-23T17:39:10.614Z,26.30
2018-02-23T17:41:39.145Z,26.90
2018-02-23T17:44:08.515Z,36.17
2018-02-23T17:46:37.097Z,33.30
2018-02-23T17:49:05.704Z,41.73
2018-02-23T17:51:34.585Z,33.55
2018-02-23T17:54:03.388Z,39.45
2018-02-23T17:56:32.337Z,36.42
2018-02-23T17:59:02.234Z,38.42
2018-02-23T18:01:31.891Z,35.63
2018-02-23T18:04:00.762Z,36.75
2018-02-23T18:06:29.615Z,33.80
2018-02-23T18:08:59.242Z,36.53
2018-02-23T18:11:28.045Z,36.55
2018-02-23T18:13:56.870Z,36.87
2018-02-23T18:16:25.712Z,32.13
2018-02-23T18:18:54.699Z,37.70
2018-02-23T18:21:23.673Z,33.67
2018-02-23T18:23:53.368Z,29.45
2018-02-23T18:26:23.028Z,31.65
2018-02-23T18:28:51.886Z,36.33
2018-02-23T18:31:21.536Z,33.88
2018-02-23T18:33:50.099Z,32.10
2018-02-23T18:36:18.899Z,32.33
2018-02-23T18:38:47.740Z,37.67
2018-02-23T18:41:17.160Z,32.60
2018-02-23T18:43:46.765Z,34.22
2018-02-23T18:46:16.420Z,36.22
2018-02-23T18:48:45.252Z,37.85
2018-02-23T18:51:14.857Z,37.08
2018-02-23T18:53:44.660Z,35.92
2018-02-23T18:56:14.296Z,39.65
2018-02-23T18:58:43.125Z,42.88
2018-02-23T19:01:12.137Z,38.92
2018-02-23T19:03:41.029Z,37.80
2018-02-23T19:06:09.717Z,37.85
2018-02-23T19:08:38.419Z,37.92
2018-02-23T19:11:07.152Z,93.18
2018-02-23T19:13:36.034Z,77.70
2018-02-23T19:16:04.806Z,63.60
2018-02-23T19:18:33.706Z,63.65
2018-02-23T19:21:02.600Z,43.22
2018-02-23T19:23:31.506Z,41.03
2018-02-23T19:26:00.419Z,41.33
2018-02-23T19:28:29.183Z,42.30
2018-02-23T19:30:58.040Z,48.50
2018-02-23T19:33:27.686Z,45.08
2018-02-23T19:35:56.783Z,39.08
2018-02-23T19:38:25.514Z,45.78
2018-02-23T19:40:54.883Z,47.05
2018-02-23T19:43:23.750Z,44.40
2018-02-23T19:45:52.626Z,45.53
2018-02-23T19:48:21.409Z,57.25
2018-02-23T19:50:50.970Z,47.75
2018-02-23T19:53:19.745Z,49.60
2018-02-23T19:55:48.530Z,45.15
2018-02-23T19:58:17.322Z,43.87
2018-02-23T20:00:46.125Z,44.97
2018-02-23T20:03:14.877Z,47.25
2018-02-23T20:05:43.657Z,49.83
2018-02-23T20:08:12.430Z,46.67
2018-02-23T20:10:41.954Z,42.75
2018-02-23T20:13:10.752Z,63.22
2018-02-23T20:15:39.499Z,53.05
2018-02-23T20:18:09.050Z,44.10
2018-02-23T20:20:38.583Z,39.72
2018-02-23T20:23:07.160Z,38.67
2018-02-23T20:25:35.929Z,41.72
2018-02-23T20:28:04.682Z,38.92
2018-02-23T20:30:33.474Z,40.50
2018-02-23T20:33:02.248Z,43.55
2018-02-23T20:35:31.758Z,39.50
2018-02-23T20:38:01.301Z,40.17
2018-02-23T20:40:30.063Z,43.00
2018-02-23T20:43:00.791Z,38.63
2018-02-23T20:45:29.614Z,37.53
2018-02-23T20:47:58.530Z,37.03
2018-02-23T20:50:27.323Z,35.45
2018-02-23T20:52:56.406Z,39.38
2018-02-23T20:55:25.298Z,43.00
2018-02-23T20:57:54.155Z,39.67
2018-02-23T21:00:25.456Z,38.92
2018-02-23T21:02:55.105Z,39.33
2018-02-23T21:05:23.962Z,40.30
2018-02-23T21:07:53.712Z,44.95
2018-02-23T21:10:22.547Z,36.08
2018-02-23T21:12:51.591Z,39.83
2018-02-23T21:15:20.479Z,32.03
2018-02-23T21:17:49.289Z,41.37
2018-02-23T21:20:18.134Z,42.53
2018-02-23T21:22:47.735Z,37.13
2018-02-23T21:25:17.372Z,41.17
2018-02-23T21:27:46.197Z,34.40
2018-02-23T21:30:15.210Z,40.75
2018-02-23T21:32:44.798Z,41.50
2018-02-23T21:35:13.593Z,34.58
2018-02-23T21:37:43.213Z,40.03
2018-02-23T21:40:12.821Z,40.83
2018-02-23T21:42:41.678Z,39.15
2018-02-23T21:45:10.507Z,33.25
2018-02-23T21:47:40.099Z,38.97
2018-02-23T21:50:09.101Z,37.97
2018-02-23T21:52:38.115Z,36.25
2018-02-23T21:55:06.805Z,39.25
2018-02-23T21:57:35.532Z,36.95
2018-02-23T22:00:04.197Z,38.40
2018-02-23T22:02:33.071Z,38.03
2018-02-23T22:05:01.895Z,36.60
2018-02-23T22:07:30.855Z,39.17
2018-02-23T22:09:59.738Z,40.75
2018-02-23T22:12:28.570Z,37.08
2018-02-23T22:14:57.472Z,41.00
2018-02-23T22:17:26.314Z,34.60
2018-02-23T22:19:55.201Z,37.80
2018-02-23T22:22:24.035Z,40.95
2018-02-23T22:24:52.858Z,38.35
2018-02-23T22:27:22.487Z,42.35
2018-02-23T22:29:51.144Z,39.95
2018-02-23T22:32:20.003Z,39.92
2018-02-23T22:34:48.977Z,41.70
2018-02-23T22:37:17.844Z,40.53
2018-02-23T22:39:46.503Z,37.90
2018-02-23T22:42:16.089Z,40.28
2018-02-23T22:44:44.926Z,35.90
2018-02-23T22:47:13.480Z,35.78
2018-02-23T22:49:43.086Z,40.25
2018-02-23T22:52:11.899Z,42.22
2018-02-23T22:54:40.718Z,36.65
2018-02-23T22:57:09.563Z,34.47
2018-02-23T22:59:39.215Z,38.40
2018-02-23T23:02:08.073Z,34.88
2018-02-23T23:04:36.883Z,36.22
2018-02-23T23:07:05.115Z,37.03
2018-02-23T23:09:33.967Z,36.10
2018-02-23T23:12:02.790Z,35.30
2018-02-23T23:14:31.811Z,36.25
2018-02-23T23:17:00.624Z,41.72
2018-02-23T23:19:29.432Z,41.20
2018-02-23T23:21:58.270Z,36.08
2018-02-23T23:24:27.106Z,38.40
2018-02-23T23:26:55.958Z,35.40
2018-02-23T23:29:25.940Z,35.60
2018-02-23T23:31:54.784Z,36.30
2018-02-23T23:34:23.614Z,36.00
2018-02-23T23:36:52.516Z,29.85
2018-02-23T23:39:20.731Z,31.58
2018-02-23T23:41:49.603Z,37.95
2018-02-23T23:44:19.237Z,32.22
2018-02-23T23:46:48.058Z,33.80
2018-02-23T23:49:16.813Z,31.35
2018-02-23T23:51:45.615Z,36.53
2018-02-23T23:54:14.412Z,33.95
2018-02-23T23:56:43.243Z,36.92
2018-02-23T23:59:12.844Z,37.03
